sensor_id;sensor_type;location;lat;lon;timestamp;pressure;altitude;pressure_sealevel;temperature;humidity
13407;BME280;6774;48.208;10.766;2022-09-16T00:00:41;95008.88;;;14.49;88.67
13407;BME280;6774;48.208;10.766;2022-09-16T00:03:10;95006.03;;;14.44;89.06
13407;BME280;6774;48.208;10.766;2022-09-16T00:05:42;95013.44;;;14.42;89.59
13407;BME280;6774;48.208;10.766;2022-09-16T00:08:10;95001.94;;;14.48;89.52
13407;BME280;6774;48.208;10.766;2022-09-16T00:10:38;95001.38;;;14.46;89.65
13407;BME280;6774;48.208;10.766;2022-09-16T00:13:06;94993.19;;;14.48;89.45
13407;BME280;6774;48.208;10.766;2022-09-16T00:15:35;94999.31;;;14.48;89.49
13407;BME280;6774;48.208;10.766;2022-09-16T00:18:03;94994.00;;;14.48;89.58
13407;BME280;6774;48.208;10.766;2022-09-16T00:20:32;94998.25;;;14.49;89.57
13407;BME280;6774;48.208;10.766;2022-09-16T00:22:59;95001.94;;;14.48;89.65
13407;BME280;6774;48.208;10.766;2022-09-16T00:25:27;94991.34;;;14.48;89.71
13407;BME280;6774;48.208;10.766;2022-09-16T00:27:56;94996.19;;;14.51;89.35
13407;BME280;6774;48.208;10.766;2022-09-16T00:30:23;94997.09;;;14.45;89.50
13407;BME280;6774;48.208;10.766;2022-09-16T00:32:51;95004.41;;;14.43;89.35
13407;BME280;6774;48.208;10.766;2022-09-16T00:35:19;95002.81;;;14.42;89.47
13407;BME280;6774;48.208;10.766;2022-09-16T00:37:49;94992.66;;;14.39;89.66
13407;BME280;6774;48.208;10.766;2022-09-16T00:40:17;94992.66;;;14.39;89.68
13407;BME280;6774;48.208;10.766;2022-09-16T00:42:46;94996.75;;;14.35;89.75
13407;BME280;6774;48.208;10.766;2022-09-16T00:45:15;95003.34;;;14.33;89.89
13407;BME280;6774;48.208;10.766;2022-09-16T00:47:47;94998.47;;;14.30;89.76
13407;BME280;6774;48.208;10.766;2022-09-16T00:50:20;94996.88;;;14.29;89.63
13407;BME280;6774;48.208;10.766;2022-09-16T00:52:51;94996.34;;;14.20;89.39
13407;BME280;6774;48.208;10.766;2022-09-16T00:55:23;94994.13;;;14.17;89.36
13407;BME280;6774;48.208;10.766;2022-09-16T00:57:53;94988.47;;;14.13;89.26
13407;BME280;6774;48.208;10.766;2022-09-16T01:00:23;94996.19;;;14.15;89.29
13407;BME280;6774;48.208;10.766;2022-09-16T01:02:52;95002.69;;;14.19;89.04
13407;BME280;6774;48.208;10.766;2022-09-16T01:05:21;94994.28;;;14.22;89.22
13407;BME280;6774;48.208;10.766;2022-09-16T01:07:53;94999.59;;;14.22;89.60
13407;BME280;6774;48.208;10.766;2022-09-16T01:10:23;95003.88;;;14.23;90.00
13407;BME280;6774;48.208;10.766;2022-09-16T01:12:54;94995.47;;;14.08;90.39
13407;BME280;6774;48.208;10.766;2022-09-16T01:15:28;94988.81;;;14.17;90.15
13407;BME280;6774;48.208;10.766;2022-09-16T01:18:06;94984.84;;;14.08;90.12
13407;BME280;6774;48.208;10.766;2022-09-16T01:21:06;94983.69;;;14.04;90.19
13407;BME280;6774;48.208;10.766;2022-09-16T01:24:00;94986.03;;;14.12;90.20
13407;BME280;6774;48.208;10.766;2022-09-16T01:27:17;94986.50;;;14.09;90.17
13407;BME280;6774;48.208;10.766;2022-09-16T01:30:04;94990.31;;;14.13;90.03
13407;BME280;6774;48.208;10.766;2022-09-16T01:32:43;94992.81;;;14.08;90.28
13407;BME280;6774;48.208;10.766;2022-09-16T01:35:20;94996.28;;;14.08;90.53
13407;BME280;6774;48.208;10.766;2022-09-16T01:38:01;94997.75;;;14.22;89.85
13407;BME280;6774;48.208;10.766;2022-09-16T01:40:33;94990.31;;;14.13;90.06
13407;BME280;6774;48.208;10.766;2022-09-16T01:43:11;94986.16;;;14.17;90.44
13407;BME280;6774;48.208;10.766;2022-09-16T01:45:50;94990.31;;;14.13;90.20
13407;BME280;6774;48.208;10.766;2022-09-16T01:48:24;94990.75;;;14.10;90.26
13407;BME280;6774;48.208;10.766;2022-09-16T01:50:58;94990.75;;;14.10;90.32
13407;BME280;6774;48.208;10.766;2022-09-16T01:53:32;94989.44;;;14.01;90.63
13407;BME280;6774;48.208;10.766;2022-09-16T01:56:05;95002.94;;;13.99;90.67
13407;BME280;6774;48.208;10.766;2022-09-16T01:58:38;94994.75;;;14.01;90.50
13407;BME280;6774;48.208;10.766;2022-09-16T02:01:11;94998.56;;;14.05;90.39
13407;BME280;6774;48.208;10.766;2022-09-16T02:03:49;94991.81;;;14.09;90.17
13407;BME280;6774;48.208;10.766;2022-09-16T02:06:21;94984.69;;;14.21;89.43
13407;BME280;6774;48.208;10.766;2022-09-16T02:08:53;94985.75;;;14.20;89.60
13407;BME280;6774;48.208;10.766;2022-09-16T02:11:23;94993.53;;;14.15;89.91
13407;BME280;6774;48.208;10.766;2022-09-16T02:13:54;94994.75;;;14.19;89.59
13407;BME280;6774;48.208;10.766;2022-09-16T02:16:28;94990.81;;;14.21;89.21
13407;BME280;6774;48.208;10.766;2022-09-16T02:19:05;94994.13;;;14.17;88.91
13407;BME280;6774;48.208;10.766;2022-09-16T02:21:38;94995.63;;;14.13;89.43
13407;BME280;6774;48.208;10.766;2022-09-16T02:24:15;94999.75;;;14.09;89.00
13407;BME280;6774;48.208;10.766;2022-09-16T02:26:47;94994.50;;;14.02;88.81
13407;BME280;6774;48.208;10.766;2022-09-16T02:29:20;94997.22;;;13.95;88.61
13407;BME280;6774;48.208;10.766;2022-09-16T02:31:51;94993.25;;;13.86;88.51
13407;BME280;6774;48.208;10.766;2022-09-16T02:34:26;95005.13;;;13.84;88.59
13407;BME280;6774;48.208;10.766;2022-09-16T02:37:02;94982.34;;;13.76;88.41
13407;BME280;6774;48.208;10.766;2022-09-16T02:39:35;94991.78;;;13.72;88.39
13407;BME280;6774;48.208;10.766;2022-09-16T02:42:05;94993.09;;;13.63;88.45
13407;BME280;6774;48.208;10.766;2022-09-16T02:44:34;94989.25;;;13.59;88.35
13407;BME280;6774;48.208;10.766;2022-09-16T02:47:08;94980.13;;;13.55;88.47
13407;BME280;6774;48.208;10.766;2022-09-16T02:49:43;94995.72;;;13.45;88.72
13407;BME280;6774;48.208;10.766;2022-09-16T02:52:23;94987.91;;;13.50;88.91
13407;BME280;6774;48.208;10.766;2022-09-16T02:55:02;94980.13;;;13.55;88.54
13407;BME280;6774;48.208;10.766;2022-09-16T02:57:32;94983.00;;;13.53;88.37
13407;BME280;6774;48.208;10.766;2022-09-16T03:00:00;94978.50;;;13.54;88.28
13407;BME280;6774;48.208;10.766;2022-09-16T03:02:30;94980.53;;;13.52;88.40
13407;BME280;6774;48.208;10.766;2022-09-16T03:05:01;94980.22;;;13.42;88.93
13407;BME280;6774;48.208;10.766;2022-09-16T03:07:29;94979.59;;;13.46;88.83
13407;BME280;6774;48.208;10.766;2022-09-16T03:09:57;94976.50;;;13.49;88.89
13407;BME280;6774;48.208;10.766;2022-09-16T03:12:40;94986.56;;;13.41;88.93
13407;BME280;6774;48.208;10.766;2022-09-16T03:15:27;94985.53;;;13.42;88.91
13407;BME280;6774;48.208;10.766;2022-09-16T03:18:10;94985.88;;;13.27;89.13
13407;BME280;6774;48.208;10.766;2022-09-16T03:20:51;94978.28;;;13.30;88.81
13407;BME280;6774;48.208;10.766;2022-09-16T03:23:31;94976.94;;;13.21;88.90
13407;BME280;6774;48.208;10.766;2022-09-16T03:26:08;94981.22;;;13.16;89.00
13407;BME280;6774;48.208;10.766;2022-09-16T03:28:44;94974.38;;;13.08;88.98
13407;BME280;6774;48.208;10.766;2022-09-16T03:31:17;94984.09;;;13.14;88.92
13407;BME280;6774;48.208;10.766;2022-09-16T03:33:49;94981.66;;;13.13;88.73
13407;BME280;6774;48.208;10.766;2022-09-16T03:36:25;94984.53;;;13.11;88.81
13407;BME280;6774;48.208;10.766;2022-09-16T03:38:57;94978.38;;;13.17;88.89
13407;BME280;6774;48.208;10.766;2022-09-16T03:41:27;94976.56;;;13.18;89.02
13407;BME280;6774;48.208;10.766;2022-09-16T03:43:57;94978.56;;;13.22;89.18
13407;BME280;6774;48.208;10.766;2022-09-16T03:46:30;94982.84;;;13.23;89.93
13407;BME280;6774;48.208;10.766;2022-09-16T03:48:58;94973.84;;;13.24;90.28
13407;BME280;6774;48.208;10.766;2022-09-16T03:51:28;94974.03;;;13.29;89.94
13407;BME280;6774;48.208;10.766;2022-09-16T03:53:56;94970.78;;;13.27;90.17
13407;BME280;6774;48.208;10.766;2022-09-16T03:56:24;94973.66;;;13.26;90.33
13407;BME280;6774;48.208;10.766;2022-09-16T03:58:52;94971.88;;;13.20;90.02
13407;BME280;6774;48.208;10.766;2022-09-16T04:01:20;94964.69;;;13.27;90.17
13407;BME280;6774;48.208;10.766;2022-09-16T04:03:48;94976.63;;;13.36;89.69
13407;BME280;6774;48.208;10.766;2022-09-16T04:06:17;94973.75;;;13.37;89.67
13407;BME280;6774;48.208;10.766;2022-09-16T04:08:47;94976.53;;;13.43;89.62
13407;BME280;6774;48.208;10.766;2022-09-16T04:11:16;94973.47;;;13.46;89.64
13407;BME280;6774;48.208;10.766;2022-09-16T04:13:44;94980.13;;;13.55;89.38
13407;BME280;6774;48.208;10.766;2022-09-16T04:16:18;94973.72;;;13.62;89.25
13407;BME280;6774;48.208;10.766;2022-09-16T04:18:46;94975.13;;;13.65;89.07
13407;BME280;6774;48.208;10.766;2022-09-16T04:21:14;94968.63;;;13.61;89.16
13407;BME280;6774;48.208;10.766;2022-09-16T04:23:42;94964.63;;;13.52;89.43
13407;BME280;6774;48.208;10.766;2022-09-16T04:26:11;94968.31;;;13.51;89.71
13407;BME280;6774;48.208;10.766;2022-09-16T04:28:38;94968.31;;;13.51;89.66
13407;BME280;6774;48.208;10.766;2022-09-16T04:31:09;94968.53;;;13.49;89.76
13407;BME280;6774;48.208;10.766;2022-09-16T04:33:38;94970.31;;;13.55;89.73
13407;BME280;6774;48.208;10.766;2022-09-16T04:36:07;94967.44;;;13.57;89.74
13407;BME280;6774;48.208;10.766;2022-09-16T04:38:35;94966.41;;;13.58;89.64
13407;BME280;6774;48.208;10.766;2022-09-16T04:41:06;94964.13;;;13.61;89.70
13407;BME280;6774;48.208;10.766;2022-09-16T04:43:35;94960.09;;;13.59;89.86
13407;BME280;6774;48.208;10.766;2022-09-16T04:46:04;94953.75;;;13.60;89.81
13407;BME280;6774;48.208;10.766;2022-09-16T04:48:33;94948.31;;;13.73;89.76
13407;BME280;6774;48.208;10.766;2022-09-16T04:51:02;94952.06;;;13.84;89.28
13407;BME280;6774;48.208;10.766;2022-09-16T04:53:30;94956.88;;;13.93;88.86
13407;BME280;6774;48.208;10.766;2022-09-16T04:56:03;94963.78;;;13.94;88.83
13407;BME280;6774;48.208;10.766;2022-09-16T04:58:31;94962.63;;;13.90;89.35
13407;BME280;6774;48.208;10.766;2022-09-16T05:01:05;94964.59;;;13.95;89.31
13407;BME280;6774;48.208;10.766;2022-09-16T05:03:33;94966.88;;;13.91;89.50
13407;BME280;6774;48.208;10.766;2022-09-16T05:06:05;94976.16;;;13.82;90.02
13407;BME280;6774;48.208;10.766;2022-09-16T05:08:34;94974.91;;;13.85;89.80
13407;BME280;6774;48.208;10.766;2022-09-16T05:11:04;94977.34;;;13.86;89.98
13407;BME280;6774;48.208;10.766;2022-09-16T05:13:33;94972.03;;;13.86;90.06
13407;BME280;6774;48.208;10.766;2022-09-16T05:16:07;94972.78;;;13.93;89.77
13407;BME280;6774;48.208;10.766;2022-09-16T05:18:36;94974.63;;;13.93;89.85
13407;BME280;6774;48.208;10.766;2022-09-16T05:21:06;94975.66;;;13.92;90.31
13407;BME280;6774;48.208;10.766;2022-09-16T05:23:35;94967.41;;;14.00;89.68
13407;BME280;6774;48.208;10.766;2022-09-16T05:26:04;94972.56;;;13.95;89.90
13407;BME280;6774;48.208;10.766;2022-09-16T05:28:34;94979.41;;;13.84;90.21
13407;BME280;6774;48.208;10.766;2022-09-16T05:31:14;94975.28;;;13.88;90.17
13407;BME280;6774;48.208;10.766;2022-09-16T05:33:45;94973.81;;;13.92;90.43
13407;BME280;6774;48.208;10.766;2022-09-16T05:36:15;94961.28;;;14.00;90.34
13407;BME280;6774;48.208;10.766;2022-09-16T05:38:44;94972.25;;;14.03;90.20
13407;BME280;6774;48.208;10.766;2022-09-16T05:41:32;94968.63;;;13.98;90.65
13407;BME280;6774;48.208;10.766;2022-09-16T05:44:00;94964.53;;;14.02;90.68
13407;BME280;6774;48.208;10.766;2022-09-16T05:46:29;94958.78;;;14.05;90.23
13407;BME280;6774;48.208;10.766;2022-09-16T05:48:57;94958.31;;;14.08;90.27
13407;BME280;6774;48.208;10.766;2022-09-16T05:51:25;94958.69;;;14.11;90.70
13407;BME280;6774;48.208;10.766;2022-09-16T05:53:54;94956.03;;;14.11;90.16
13407;BME280;6774;48.208;10.766;2022-09-16T05:56:23;94956.97;;;14.17;90.55
13407;BME280;6774;48.208;10.766;2022-09-16T05:58:52;94948.44;;;14.15;90.57
13407;BME280;6774;48.208;10.766;2022-09-16T06:01:22;94950.50;;;14.13;90.64
13407;BME280;6774;48.208;10.766;2022-09-16T06:03:52;94959.84;;;14.15;90.81
13407;BME280;6774;48.208;10.766;2022-09-16T06:06:22;94956.16;;;14.16;90.74
13407;BME280;6774;48.208;10.766;2022-09-16T06:08:52;94949.44;;;14.32;90.21
13407;BME280;6774;48.208;10.766;2022-09-16T06:11:20;94945.44;;;14.41;90.05
13407;BME280;6774;48.208;10.766;2022-09-16T06:13:51;94944.41;;;14.42;89.76
13407;BME280;6774;48.208;10.766;2022-09-16T06:16:21;94942.66;;;14.36;90.11
13407;BME280;6774;48.208;10.766;2022-09-16T06:18:53;94944.97;;;14.44;90.06
13407;BME280;6774;48.208;10.766;2022-09-16T06:21:22;94940.88;;;14.48;89.67
13407;BME280;6774;48.208;10.766;2022-09-16T06:23:50;94944.28;;;14.56;89.55
13407;BME280;6774;48.208;10.766;2022-09-16T06:26:20;94936.41;;;14.61;89.57
13407;BME280;6774;48.208;10.766;2022-09-16T06:28:49;94942.00;;;14.71;89.40
13407;BME280;6774;48.208;10.766;2022-09-16T06:31:18;94937.28;;;14.73;89.31
13407;BME280;6774;48.208;10.766;2022-09-16T06:33:46;94926.78;;;14.78;89.27
13407;BME280;6774;48.208;10.766;2022-09-16T06:36:19;94941.22;;;14.82;89.19
13407;BME280;6774;48.208;10.766;2022-09-16T06:38:48;94925.63;;;14.86;88.74
13407;BME280;6774;48.208;10.766;2022-09-16T06:41:18;94934.31;;;14.93;88.35
13407;BME280;6774;48.208;10.766;2022-09-16T06:43:47;94930.97;;;14.97;87.92
13407;BME280;6774;48.208;10.766;2022-09-16T06:46:17;94932.16;;;15.01;87.03
13407;BME280;6774;48.208;10.766;2022-09-16T06:48:48;94932.72;;;15.03;86.18
13407;BME280;6774;48.208;10.766;2022-09-16T06:51:19;94937.56;;;15.06;86.69
13407;BME280;6774;48.208;10.766;2022-09-16T06:53:49;94938.13;;;15.08;87.09
13407;BME280;6774;48.208;10.766;2022-09-16T06:56:19;94940.94;;;15.14;87.18
13407;BME280;6774;48.208;10.766;2022-09-16T06:58:51;94935.63;;;15.14;87.95
13407;BME280;6774;48.208;10.766;2022-09-16T07:01:23;94942.91;;;15.18;87.92
13407;BME280;6774;48.208;10.766;2022-09-16T07:03:52;94936.88;;;15.23;87.84
13407;BME280;6774;48.208;10.766;2022-09-16T07:06:22;94936.41;;;15.26;87.91
13407;BME280;6774;48.208;10.766;2022-09-16T07:09:10;94930.75;;;15.34;87.72
13407;BME280;6774;48.208;10.766;2022-09-16T07:11:38;94932.28;;;15.42;87.55
13407;BME280;6774;48.208;10.766;2022-09-16T07:14:07;94930.06;;;15.50;87.25
13407;BME280;6774;48.208;10.766;2022-09-16T07:16:35;94934.47;;;15.56;87.38
13407;BME280;6774;48.208;10.766;2022-09-16T07:19:04;94931.03;;;15.68;87.00
13407;BME280;6774;48.208;10.766;2022-09-16T07:21:33;94933.81;;;15.73;86.50
13407;BME280;6774;48.208;10.766;2022-09-16T07:24:02;94933.22;;;15.82;86.45
13407;BME280;6774;48.208;10.766;2022-09-16T07:26:31;94927.97;;;15.87;85.48
13407;BME280;6774;48.208;10.766;2022-09-16T07:29:02;94935.97;;;15.87;85.60
13407;BME280;6774;48.208;10.766;2022-09-16T07:31:32;94939.78;;;15.80;85.75
13407;BME280;6774;48.208;10.766;2022-09-16T07:34:01;94935.84;;;15.94;85.15
13407;BME280;6774;48.208;10.766;2022-09-16T07:36:33;94940.00;;;15.90;85.17
13407;BME280;6774;48.208;10.766;2022-09-16T07:39:02;94934.34;;;15.86;84.49
13407;BME280;6774;48.208;10.766;2022-09-16T07:41:32;94941.84;;;16.01;84.79
13407;BME280;6774;48.208;10.766;2022-09-16T07:44:01;94940.44;;;16.10;84.82
13407;BME280;6774;48.208;10.766;2022-09-16T07:46:32;94945.03;;;16.15;84.54
13407;BME280;6774;48.208;10.766;2022-09-16T07:49:02;94937.97;;;16.20;84.84
13407;BME280;6774;48.208;10.766;2022-09-16T07:51:30;94937.97;;;16.20;83.98
13407;BME280;6774;48.208;10.766;2022-09-16T07:54:02;94936.19;;;16.38;83.68
13407;BME280;6774;48.208;10.766;2022-09-16T07:56:33;94940.06;;;16.18;84.71
13407;BME280;6774;48.208;10.766;2022-09-16T07:59:04;94936.44;;;16.25;84.78
13407;BME280;6774;48.208;10.766;2022-09-16T08:01:32;94934.09;;;16.40;83.99
13407;BME280;6774;48.208;10.766;2022-09-16T08:04:05;94940.25;;;16.29;84.35
13407;BME280;6774;48.208;10.766;2022-09-16T08:06:36;94936.19;;;16.38;84.07
13407;BME280;6774;48.208;10.766;2022-09-16T08:09:06;94939.50;;;16.45;84.12
13407;BME280;6774;48.208;10.766;2022-09-16T08:11:54;94936.94;;;16.50;83.99
13407;BME280;6774;48.208;10.766;2022-09-16T08:14:21;94935.41;;;16.54;83.67
13407;BME280;6774;48.208;10.766;2022-09-16T08:16:49;94934.59;;;16.82;83.78
13407;BME280;6774;48.208;10.766;2022-09-16T08:19:17;94943.50;;;16.88;83.25
13407;BME280;6774;48.208;10.766;2022-09-16T08:21:46;94940.66;;;16.77;84.12
13407;BME280;6774;48.208;10.766;2022-09-16T08:24:15;94941.38;;;16.73;82.88
13407;BME280;6774;48.208;10.766;2022-09-16T08:26:42;94940.00;;;16.70;82.04
13407;BME280;6774;48.208;10.766;2022-09-16T08:29:10;94947.88;;;16.65;82.13
13407;BME280;6774;48.208;10.766;2022-09-16T08:31:38;94945.88;;;16.44;83.29
13407;BME280;6774;48.208;10.766;2022-09-16T08:34:06;94940.34;;;16.34;83.28
13407;BME280;6774;48.208;10.766;2022-09-16T08:36:34;94946.34;;;16.41;83.71
13407;BME280;6774;48.208;10.766;2022-09-16T08:39:02;94944.38;;;16.36;83.96
13407;BME280;6774;48.208;10.766;2022-09-16T08:41:44;94942.56;;;16.37;83.20
13407;BME280;6774;48.208;10.766;2022-09-16T08:44:19;94944.94;;;16.50;83.61
13407;BME280;6774;48.208;10.766;2022-09-16T08:46:52;94940.34;;;16.34;84.40
13407;BME280;6774;48.208;10.766;2022-09-16T08:49:27;94939.13;;;16.53;83.76
13407;BME280;6774;48.208;10.766;2022-09-16T08:51:57;94938.47;;;16.46;83.75
13407;BME280;6774;48.208;10.766;2022-09-16T08:54:30;94932.94;;;16.36;83.83
13407;BME280;6774;48.208;10.766;2022-09-16T08:57:02;94941.84;;;16.41;84.25
13407;BME280;6774;48.208;10.766;2022-09-16T08:59:35;94943.13;;;16.39;83.61
13407;BME280;6774;48.208;10.766;2022-09-16T09:02:23;94947.41;;;16.40;84.63
13407;BME280;6774;48.208;10.766;2022-09-16T09:04:55;94947.25;;;16.46;85.21
13407;BME280;6774;48.208;10.766;2022-09-16T09:07:29;94941.72;;;16.36;84.85
13407;BME280;6774;48.208;10.766;2022-09-16T09:10:05;94928.84;;;16.45;84.88
13407;BME280;6774;48.208;10.766;2022-09-16T09:12:43;94938.84;;;16.38;85.01
13407;BME280;6774;48.208;10.766;2022-09-16T09:15:33;94930.31;;;16.24;85.07
13407;BME280;6774;48.208;10.766;2022-09-16T09:18:25;94935.19;;;16.15;85.28
13407;BME280;6774;48.208;10.766;2022-09-16T09:21:09;94932.97;;;16.24;85.59
13407;BME280;6774;48.208;10.766;2022-09-16T09:23:51;94927.84;;;16.34;85.58
13407;BME280;6774;48.208;10.766;2022-09-16T09:26:30;94931.13;;;16.25;85.78
13407;BME280;6774;48.208;10.766;2022-09-16T09:29:13;94926.28;;;16.21;85.81
13407;BME280;6774;48.208;10.766;2022-09-16T09:31:51;94935.03;;;16.34;85.29
13407;BME280;6774;48.208;10.766;2022-09-16T09:34:32;94934.84;;;16.24;85.39
13407;BME280;6774;48.208;10.766;2022-09-16T09:37:18;94926.00;;;15.95;86.52
13407;BME280;6774;48.208;10.766;2022-09-16T09:39:56;94920.31;;;16.03;86.84
13407;BME280;6774;48.208;10.766;2022-09-16T09:42:29;94922.38;;;16.12;86.59
13407;BME280;6774;48.208;10.766;2022-09-16T09:45:02;94915.81;;;16.03;87.49
13407;BME280;6774;48.208;10.766;2022-09-16T09:47:34;94918.16;;;15.76;87.28
13407;BME280;6774;48.208;10.766;2022-09-16T09:50:14;94919.25;;;15.63;88.14
13407;BME280;6774;48.208;10.766;2022-09-16T09:52:47;94917.25;;;15.71;88.12
13407;BME280;6774;48.208;10.766;2022-09-16T09:55:19;94913.09;;;15.75;87.15
13407;BME280;6774;48.208;10.766;2022-09-16T09:58:03;94916.78;;;15.74;86.63
13407;BME280;6774;48.208;10.766;2022-09-16T10:00:33;94908.44;;;15.58;84.78
13407;BME280;6774;48.208;10.766;2022-09-16T10:03:05;94910.66;;;15.38;83.32
13407;BME280;6774;48.208;10.766;2022-09-16T10:05:33;94914.13;;;15.27;83.81
13407;BME280;6774;48.208;10.766;2022-09-16T10:08:04;94930.88;;;15.16;83.63
13407;BME280;6774;48.208;10.766;2022-09-16T10:10:46;94926.03;;;15.01;83.95
13407;BME280;6774;48.208;10.766;2022-09-16T10:13:15;94942.06;;;14.94;84.45
13407;BME280;6774;48.208;10.766;2022-09-16T10:15:45;94951.75;;;14.89;85.05
13407;BME280;6774;48.208;10.766;2022-09-16T10:18:24;94939.72;;;14.86;85.26
13407;BME280;6774;48.208;10.766;2022-09-16T10:21:01;94947.13;;;14.84;85.38
13407;BME280;6774;48.208;10.766;2022-09-16T10:23:30;94934.97;;;14.76;85.34
13407;BME280;6774;48.208;10.766;2022-09-16T10:26:13;94918.56;;;14.79;85.40
13407;BME280;6774;48.208;10.766;2022-09-16T10:28:56;94925.63;;;14.74;85.07
13407;BME280;6774;48.208;10.766;2022-09-16T10:31:27;94933.69;;;14.79;85.74
13407;BME280;6774;48.208;10.766;2022-09-16T10:34:02;94934.75;;;14.78;84.82
13407;BME280;6774;48.208;10.766;2022-09-16T10:36:32;94944.78;;;14.76;84.96
13407;BME280;6774;48.208;10.766;2022-09-16T10:39:03;94946.41;;;14.77;84.72
13407;BME280;6774;48.208;10.766;2022-09-16T10:41:33;94941.66;;;14.79;85.25
13407;BME280;6774;48.208;10.766;2022-09-16T10:44:05;94948.66;;;14.92;85.48
13407;BME280;6774;48.208;10.766;2022-09-16T10:46:34;94955.44;;;14.99;85.26
13407;BME280;6774;48.208;10.766;2022-09-16T10:49:09;94955.94;;;15.08;85.00
13407;BME280;6774;48.208;10.766;2022-09-16T10:51:38;94964.28;;;15.12;84.65
13407;BME280;6774;48.208;10.766;2022-09-16T10:54:22;94970.41;;;15.12;84.84
13407;BME280;6774;48.208;10.766;2022-09-16T10:56:50;94956.16;;;15.06;84.29
13407;BME280;6774;48.208;10.766;2022-09-16T10:59:18;94952.94;;;15.04;84.58
13407;BME280;6774;48.208;10.766;2022-09-16T11:01:54;94966.69;;;15.01;84.54
13407;BME280;6774;48.208;10.766;2022-09-16T11:04:45;94961.22;;;14.96;84.44
13407;BME280;6774;48.208;10.766;2022-09-16T11:07:26;94961.13;;;14.91;84.56
13407;BME280;6774;48.208;10.766;2022-09-16T11:10:07;94975.53;;;14.84;84.75
13407;BME280;6774;48.208;10.766;2022-09-16T11:12:50;94975.47;;;14.72;84.50
13407;BME280;6774;48.208;10.766;2022-09-16T11:15:34;94981.97;;;14.76;84.76
13407;BME280;6774;48.208;10.766;2022-09-16T11:18:20;94973.78;;;14.77;84.80
13407;BME280;6774;48.208;10.766;2022-09-16T11:21:03;94993.94;;;14.67;85.49
13407;BME280;6774;48.208;10.766;2022-09-16T11:23:50;95000.59;;;14.58;84.51
13407;BME280;6774;48.208;10.766;2022-09-16T11:26:29;95001.66;;;14.57;84.24
13407;BME280;6774;48.208;10.766;2022-09-16T11:29:08;94996.56;;;14.55;84.50
13407;BME280;6774;48.208;10.766;2022-09-16T11:31:45;95000.03;;;14.56;84.83
13407;BME280;6774;48.208;10.766;2022-09-16T11:34:26;95002.56;;;14.44;84.55
13407;BME280;6774;48.208;10.766;2022-09-16T11:37:07;94998.72;;;14.46;84.34
13407;BME280;6774;48.208;10.766;2022-09-16T11:39:54;94996.47;;;14.43;85.44
13407;BME280;6774;48.208;10.766;2022-09-16T11:42:30;94996.75;;;14.54;85.74
13407;BME280;6774;48.208;10.766;2022-09-16T11:45:08;94988.72;;;14.60;85.33
13407;BME280;6774;48.208;10.766;2022-09-16T11:47:50;95001.34;;;14.65;85.31
13407;BME280;6774;48.208;10.766;2022-09-16T11:50:29;95006.19;;;14.68;84.38
13407;BME280;6774;48.208;10.766;2022-09-16T11:53:23;95011.00;;;14.59;84.07
13407;BME280;6774;48.208;10.766;2022-09-16T11:56:00;95009.63;;;14.57;84.21
13407;BME280;6774;48.208;10.766;2022-09-16T11:58:35;95013.03;;;14.45;84.48
13407;BME280;6774;48.208;10.766;2022-09-16T12:01:12;95003.78;;;14.48;84.52
13407;BME280;6774;48.208;10.766;2022-09-16T12:03:52;95001.50;;;14.51;84.51
13407;BME280;6774;48.208;10.766;2022-09-16T12:06:27;95004.31;;;14.57;84.05
13407;BME280;6774;48.208;10.766;2022-09-16T12:08:59;95006.28;;;14.61;83.67
13407;BME280;6774;48.208;10.766;2022-09-16T12:11:34;95009.38;;;14.58;83.14
13407;BME280;6774;48.208;10.766;2022-09-16T12:14:08;95011.69;;;14.55;83.01
13407;BME280;6774;48.208;10.766;2022-09-16T12:16:41;95016.53;;;14.58;81.10
13407;BME280;6774;48.208;10.766;2022-09-16T12:19:14;95009.63;;;14.57;81.14
13407;BME280;6774;48.208;10.766;2022-09-16T12:21:48;95010.78;;;14.61;81.34
13407;BME280;6774;48.208;10.766;2022-09-16T12:24:29;95016.53;;;14.58;81.99
13407;BME280;6774;48.208;10.766;2022-09-16T12:27:03;95018.88;;;14.66;82.64
13407;BME280;6774;48.208;10.766;2022-09-16T12:29:39;95027.47;;;14.49;82.02
13407;BME280;6774;48.208;10.766;2022-09-16T12:32:13;95035.56;;;14.18;82.57
13407;BME280;6774;48.208;10.766;2022-09-16T12:34:45;95036.00;;;13.97;83.85
13407;BME280;6774;48.208;10.766;2022-09-16T12:37:25;95010.50;;;14.32;83.42
13407;BME280;6774;48.208;10.766;2022-09-16T12:39:55;95012.56;;;14.48;82.61
13407;BME280;6774;48.208;10.766;2022-09-16T12:42:49;95008.41;;;14.52;82.91
13407;BME280;6774;48.208;10.766;2022-09-16T12:45:29;95013.13;;;14.69;82.49
13407;BME280;6774;48.208;10.766;2022-09-16T12:48:12;95015.38;;;14.84;82.30
13407;BME280;6774;48.208;10.766;2022-09-16T12:51:07;95015.88;;;14.92;81.84
13407;BME280;6774;48.208;10.766;2022-09-16T12:54:00;95005.84;;;15.18;82.84
13407;BME280;6774;48.208;10.766;2022-09-16T12:56:47;94995.97;;;15.48;82.82
13407;BME280;6774;48.208;10.766;2022-09-16T12:59:46;94992.56;;;15.83;81.36
13407;BME280;6774;48.208;10.766;2022-09-16T13:02:21;94992.19;;;16.03;80.72
13407;BME280;6774;48.208;10.766;2022-09-16T13:04:53;94995.66;;;15.91;77.66
13407;BME280;6774;48.208;10.766;2022-09-16T13:07:24;94994.47;;;15.99;78.65
13407;BME280;6774;48.208;10.766;2022-09-16T13:10:03;95000.41;;;15.78;75.53
13407;BME280;6774;48.208;10.766;2022-09-16T13:12:33;95005.25;;;15.92;77.01
13407;BME280;6774;48.208;10.766;2022-09-16T13:15:22;95001.53;;;15.47;77.15
13407;BME280;6774;48.208;10.766;2022-09-16T13:17:51;95006.16;;;15.51;77.92
13407;BME280;6774;48.208;10.766;2022-09-16T13:20:22;95003.81;;;15.20;79.13
13407;BME280;6774;48.208;10.766;2022-09-16T13:23:03;95013.84;;;14.76;79.36
13407;BME280;6774;48.208;10.766;2022-09-16T13:25:44;95018.06;;;14.65;80.66
13407;BME280;6774;48.208;10.766;2022-09-16T13:28:24;95021.25;;;14.37;81.61
13407;BME280;6774;48.208;10.766;2022-09-16T13:30:53;95024.50;;;14.39;83.10
13407;BME280;6774;48.208;10.766;2022-09-16T13:33:24;95026.13;;;14.22;82.41